sensor_id;sensor_type;location;lat;lon;timestamp;P1;durP1;ratioP1;P2;durP2;ratioP2
81320;SDS011;70785;52.570;5.638;2023-08-30T00:02:11;8.15;;;5.13;;
81320;SDS011;70785;52.570;5.638;2023-08-30T00:04:37;8.23;;;5.13;;
81320;SDS011;70785;52.570;5.638;2023-08-30T00:07:04;9.90;;;5.15;;
81320;SDS011;70785;52.570;5.638;2023-08-30T00:09:30;9.60;;;5.50;;
81320;SDS011;70785;52.570;5.638;2023-08-30T00:11:56;8.45;;;6.13;;
81320;SDS011;70785;52.570;5.638;2023-08-30T00:14:23;9.07;;;5.82;;
81320;SDS011;70785;52.570;5.638;2023-08-30T00:16:49;8.68;;;5.50;;
81320;SDS011;70785;52.570;5.638;2023-08-30T00:19:17;9.38;;;5.70;;
81320;SDS011;70785;52.570;5.638;2023-08-30T00:21:44;8.82;;;5.45;;
81320;SDS011;70785;52.570;5.638;2023-08-30T00:24:10;9.18;;;5.93;;
81320;SDS011;70785;52.570;5.638;2023-08-30T00:26:36;9.80;;;5.55;;
81320;SDS011;70785;52.570;5.638;2023-08-30T00:29:04;7.45;;;5.47;;
81320;SDS011;70785;52.570;5.638;2023-08-30T00:31:30;9.05;;;5.60;;
81320;SDS011;70785;52.570;5.638;2023-08-30T00:33:56;9.68;;;5.57;;
81320;SDS011;70785;52.570;5.638;2023-08-30T00:36:22;9.40;;;5.65;;
81320;SDS011;70785;52.570;5.638;2023-08-30T00:38:48;9.52;;;6.03;;
81320;SDS011;70785;52.570;5.638;2023-08-30T00:41:15;9.18;;;5.80;;
81320;SDS011;70785;52.570;5.638;2023-08-30T00:43:41;10.05;;;6.13;;
81320;SDS011;70785;52.570;5.638;2023-08-30T00:46:07;9.13;;;5.95;;
81320;SDS011;70785;52.570;5.638;2023-08-30T00:48:33;12.20;;;6.95;;
81320;SDS011;70785;52.570;5.638;2023-08-30T00:50:59;9.90;;;6.22;;
81320;SDS011;70785;52.570;5.638;2023-08-30T00:53:25;9.52;;;6.28;;
81320;SDS011;70785;52.570;5.638;2023-08-30T00:55:51;9.52;;;6.15;;
81320;SDS011;70785;52.570;5.638;2023-08-30T00:58:17;10.50;;;6.03;;
81320;SDS011;70785;52.570;5.638;2023-08-30T01:00:44;10.75;;;6.68;;
81320;SDS011;70785;52.570;5.638;2023-08-30T01:03:10;9.93;;;6.45;;
81320;SDS011;70785;52.570;5.638;2023-08-30T01:05:36;13.05;;;6.70;;
81320;SDS011;70785;52.570;5.638;2023-08-30T01:08:03;9.18;;;5.78;;
81320;SDS011;70785;52.570;5.638;2023-08-30T01:10:38;10.07;;;5.63;;
81320;SDS011;70785;52.570;5.638;2023-08-30T01:13:23;10.55;;;6.40;;
81320;SDS011;70785;52.570;5.638;2023-08-30T01:15:53;10.57;;;6.28;;
81320;SDS011;70785;52.570;5.638;2023-08-30T01:18:22;10.57;;;5.80;;
81320;SDS011;70785;52.570;5.638;2023-08-30T01:20:52;10.23;;;6.43;;
81320;SDS011;70785;52.570;5.638;2023-08-30T01:28:50;12.02;;;6.93;;
81320;SDS011;70785;52.570;5.638;2023-08-30T01:31:18;10.43;;;6.45;;
81320;SDS011;70785;52.570;5.638;2023-08-30T01:33:44;11.07;;;7.05;;
81320;SDS011;70785;52.570;5.638;2023-08-30T01:36:11;14.40;;;7.25;;
81320;SDS011;70785;52.570;5.638;2023-08-30T01:38:38;9.70;;;6.28;;
81320;SDS011;70785;52.570;5.638;2023-08-30T01:41:05;12.73;;;6.95;;
81320;SDS011;70785;52.570;5.638;2023-08-30T01:43:31;9.43;;;6.35;;
81320;SDS011;70785;52.570;5.638;2023-08-30T01:45:58;11.52;;;7.55;;
81320;SDS011;70785;52.570;5.638;2023-08-30T01:48:26;12.82;;;7.30;;
81320;SDS011;70785;52.570;5.638;2023-08-30T01:50:53;10.70;;;6.30;;
81320;SDS011;70785;52.570;5.638;2023-08-30T01:53:24;10.48;;;6.70;;
81320;SDS011;70785;52.570;5.638;2023-08-30T01:55:51;9.90;;;6.47;;
81320;SDS011;70785;52.570;5.638;2023-08-30T01:58:18;10.48;;;6.65;;
81320;SDS011;70785;52.570;5.638;2023-08-30T02:00:45;13.07;;;7.25;;
81320;SDS011;70785;52.570;5.638;2023-08-30T02:03:12;10.93;;;6.40;;
81320;SDS011;70785;52.570;5.638;2023-08-30T02:05:48;11.35;;;6.55;;
81320;SDS011;70785;52.570;5.638;2023-08-30T02:08:35;8.13;;;5.70;;
81320;SDS011;70785;52.570;5.638;2023-08-30T02:11:04;9.93;;;6.25;;
81320;SDS011;70785;52.570;5.638;2023-08-30T02:13:42;12.43;;;6.75;;
81320;SDS011;70785;52.570;5.638;2023-08-30T02:16:10;12.05;;;6.00;;
81320;SDS011;70785;52.570;5.638;2023-08-30T02:18:41;8.05;;;5.35;;
81320;SDS011;70785;52.570;5.638;2023-08-30T02:21:07;10.30;;;5.75;;
81320;SDS011;70785;52.570;5.638;2023-08-30T02:23:33;10.48;;;6.25;;
81320;SDS011;70785;52.570;5.638;2023-08-30T02:25:59;9.55;;;5.80;;
81320;SDS011;70785;52.570;5.638;2023-08-30T02:28:28;8.00;;;5.35;;
81320;SDS011;70785;52.570;5.638;2023-08-30T02:30:54;9.93;;;5.65;;
81320;SDS011;70785;52.570;5.638;2023-08-30T02:33:21;9.80;;;6.35;;
81320;SDS011;70785;52.570;5.638;2023-08-30T02:35:47;9.48;;;5.65;;
81320;SDS011;70785;52.570;5.638;2023-08-30T02:38:13;10.65;;;5.75;;
81320;SDS011;70785;52.570;5.638;2023-08-30T02:40:40;10.13;;;5.68;;
81320;SDS011;70785;52.570;5.638;2023-08-30T02:43:07;8.57;;;5.85;;
81320;SDS011;70785;52.570;5.638;2023-08-30T02:45:33;10.02;;;5.60;;
81320;SDS011;70785;52.570;5.638;2023-08-30T02:48:00;9.15;;;5.03;;
81320;SDS011;70785;52.570;5.638;2023-08-30T02:50:26;9.35;;;5.57;;
81320;SDS011;70785;52.570;5.638;2023-08-30T02:52:52;9.35;;;6.45;;
81320;SDS011;70785;52.570;5.638;2023-08-30T02:55:18;9.27;;;6.07;;
81320;SDS011;70785;52.570;5.638;2023-08-30T02:57:44;10.10;;;6.05;;
81320;SDS011;70785;52.570;5.638;2023-08-30T03:00:12;10.77;;;6.25;;
81320;SDS011;70785;52.570;5.638;2023-08-30T03:02:38;12.52;;;6.80;;
81320;SDS011;70785;52.570;5.638;2023-08-30T03:05:05;10.40;;;6.30;;
81320;SDS011;70785;52.570;5.638;2023-08-30T03:07:31;11.68;;;6.85;;
81320;SDS011;70785;52.570;5.638;2023-08-30T03:09:58;10.77;;;6.88;;
81320;SDS011;70785;52.570;5.638;2023-08-30T03:12:24;10.05;;;6.47;;
81320;SDS011;70785;52.570;5.638;2023-08-30T03:14:50;9.43;;;5.78;;
81320;SDS011;70785;52.570;5.638;2023-08-30T03:17:17;12.05;;;7.20;;
81320;SDS011;70785;52.570;5.638;2023-08-30T03:19:43;12.35;;;7.78;;
81320;SDS011;70785;52.570;5.638;2023-08-30T03:22:09;12.35;;;7.43;;
81320;SDS011;70785;52.570;5.638;2023-08-30T03:24:35;12.40;;;6.95;;
81320;SDS011;70785;52.570;5.638;2023-08-30T03:27:01;9.65;;;6.68;;
81320;SDS011;70785;52.570;5.638;2023-08-30T03:29:28;11.60;;;6.88;;
81320;SDS011;70785;52.570;5.638;2023-08-30T03:31:54;10.25;;;7.00;;
81320;SDS011;70785;52.570;5.638;2023-08-30T03:34:20;11.23;;;6.60;;
81320;SDS011;70785;52.570;5.638;2023-08-30T03:36:46;11.88;;;6.72;;
81320;SDS011;70785;52.570;5.638;2023-08-30T03:39:20;11.63;;;7.18;;
81320;SDS011;70785;52.570;5.638;2023-08-30T03:41:46;12.20;;;6.30;;
81320;SDS011;70785;52.570;5.638;2023-08-30T03:44:13;9.43;;;6.00;;
81320;SDS011;70785;52.570;5.638;2023-08-30T03:46:39;11.82;;;6.50;;
81320;SDS011;70785;52.570;5.638;2023-08-30T03:49:05;12.25;;;6.70;;
81320;SDS011;70785;52.570;5.638;2023-08-30T03:51:31;9.73;;;6.85;;
81320;SDS011;70785;52.570;5.638;2023-08-30T03:53:57;11.45;;;6.75;;
81320;SDS011;70785;52.570;5.638;2023-08-30T03:56:23;10.93;;;6.72;;
81320;SDS011;70785;52.570;5.638;2023-08-30T03:58:49;11.13;;;5.82;;
81320;SDS011;70785;52.570;5.638;2023-08-30T04:01:16;12.02;;;6.72;;
81320;SDS011;70785;52.570;5.638;2023-08-30T04:03:42;11.07;;;6.97;;
81320;SDS011;70785;52.570;5.638;2023-08-30T04:06:08;11.40;;;6.57;;
81320;SDS011;70785;52.570;5.638;2023-08-30T04:08:34;10.65;;;5.55;;
81320;SDS011;70785;52.570;5.638;2023-08-30T04:11:01;10.15;;;6.53;;
81320;SDS011;70785;52.570;5.638;2023-08-30T04:13:29;10.27;;;6.70;;
81320;SDS011;70785;52.570;5.638;2023-08-30T04:15:55;11.00;;;6.43;;
81320;SDS011;70785;52.570;5.638;2023-08-30T04:18:24;12.20;;;6.47;;
81320;SDS011;70785;52.570;5.638;2023-08-30T04:20:52;11.00;;;6.32;;
81320;SDS011;70785;52.570;5.638;2023-08-30T04:23:18;10.57;;;6.72;;
81320;SDS011;70785;52.570;5.638;2023-08-30T04:25:44;11.10;;;6.80;;
81320;SDS011;70785;52.570;5.638;2023-08-30T04:28:10;14.20;;;7.05;;
81320;SDS011;70785;52.570;5.638;2023-08-30T04:30:37;12.45;;;7.03;;
81320;SDS011;70785;52.570;5.638;2023-08-30T04:33:04;13.73;;;7.63;;
81320;SDS011;70785;52.570;5.638;2023-08-30T04:35:30;12.27;;;7.78;;
81320;SDS011;70785;52.570;5.638;2023-08-30T04:38:00;15.60;;;8.02;;
81320;SDS011;70785;52.570;5.638;2023-08-30T04:40:27;14.38;;;8.27;;
81320;SDS011;70785;52.570;5.638;2023-08-30T04:42:55;13.40;;;7.75;;
81320;SDS011;70785;52.570;5.638;2023-08-30T04:45:21;12.52;;;7.65;;
81320;SDS011;70785;52.570;5.638;2023-08-30T04:47:48;12.95;;;7.65;;
81320;SDS011;70785;52.570;5.638;2023-08-30T04:50:14;12.80;;;7.50;;
81320;SDS011;70785;52.570;5.638;2023-08-30T04:52:41;11.15;;;7.20;;
81320;SDS011;70785;52.570;5.638;2023-08-30T04:55:08;13.65;;;7.35;;
81320;SDS011;70785;52.570;5.638;2023-08-30T04:57:35;14.45;;;8.00;;
81320;SDS011;70785;52.570;5.638;2023-08-30T05:00:03;12.90;;;7.43;;
81320;SDS011;70785;52.570;5.638;2023-08-30T05:02:31;14.07;;;8.93;;
81320;SDS011;70785;52.570;5.638;2023-08-30T05:05:09;13.05;;;7.72;;
81320;SDS011;70785;52.570;5.638;2023-08-30T05:07:35;12.50;;;7.75;;
81320;SDS011;70785;52.570;5.638;2023-08-30T05:10:03;15.30;;;7.65;;
81320;SDS011;70785;52.570;5.638;2023-08-30T05:12:32;14.15;;;7.18;;
81320;SDS011;70785;52.570;5.638;2023-08-30T05:14:59;14.88;;;8.15;;
81320;SDS011;70785;52.570;5.638;2023-08-30T05:17:27;13.25;;;7.40;;
81320;SDS011;70785;52.570;5.638;2023-08-30T05:19:57;12.88;;;8.27;;
81320;SDS011;70785;52.570;5.638;2023-08-30T05:22:23;12.00;;;7.40;;
81320;SDS011;70785;52.570;5.638;2023-08-30T05:24:49;12.40;;;6.40;;
81320;SDS011;70785;52.570;5.638;2023-08-30T05:27:15;13.00;;;7.70;;
81320;SDS011;70785;52.570;5.638;2023-08-30T05:29:43;13.70;;;8.13;;
81320;SDS011;70785;52.570;5.638;2023-08-30T05:32:09;13.48;;;6.93;;
81320;SDS011;70785;52.570;5.638;2023-08-30T05:34:47;9.93;;;6.88;;
81320;SDS011;70785;52.570;5.638;2023-08-30T05:37:23;14.93;;;7.35;;
81320;SDS011;70785;52.570;5.638;2023-08-30T05:39:56;13.10;;;7.65;;
81320;SDS011;70785;52.570;5.638;2023-08-30T05:42:23;15.50;;;7.68;;
81320;SDS011;70785;52.570;5.638;2023-08-30T05:44:49;10.60;;;6.65;;
81320;SDS011;70785;52.570;5.638;2023-08-30T05:47:15;15.65;;;7.90;;
81320;SDS011;70785;52.570;5.638;2023-08-30T05:49:44;12.95;;;7.68;;
81320;SDS011;70785;52.570;5.638;2023-08-30T05:52:10;12.80;;;7.72;;
81320;SDS011;70785;52.570;5.638;2023-08-30T05:54:36;11.95;;;7.85;;
81320;SDS011;70785;52.570;5.638;2023-08-30T05:57:02;12.90;;;8.18;;
81320;SDS011;70785;52.570;5.638;2023-08-30T05:59:29;11.77;;;6.70;;
81320;SDS011;70785;52.570;5.638;2023-08-30T06:01:55;12.40;;;7.35;;
81320;SDS011;70785;52.570;5.638;2023-08-30T06:04:21;13.20;;;7.40;;
81320;SDS011;70785;52.570;5.638;2023-08-30T06:06:47;12.25;;;7.60;;
81320;SDS011;70785;52.570;5.638;2023-08-30T06:09:13;11.48;;;6.70;;
81320;SDS011;70785;52.570;5.638;2023-08-30T06:11:39;13.43;;;7.70;;
81320;SDS011;70785;52.570;5.638;2023-08-30T06:14:06;14.70;;;6.80;;
81320;SDS011;70785;52.570;5.638;2023-08-30T06:16:32;12.43;;;7.25;;
81320;SDS011;70785;52.570;5.638;2023-08-30T06:18:58;14.07;;;7.93;;
81320;SDS011;70785;52.570;5.638;2023-08-30T06:21:25;16.58;;;8.30;;
81320;SDS011;70785;52.570;5.638;2023-08-30T06:23:51;12.60;;;7.65;;
81320;SDS011;70785;52.570;5.638;2023-08-30T06:26:18;11.65;;;6.75;;
81320;SDS011;70785;52.570;5.638;2023-08-30T06:28:44;12.98;;;7.43;;
81320;SDS011;70785;52.570;5.638;2023-08-30T06:31:10;10.65;;;6.72;;
81320;SDS011;70785;52.570;5.638;2023-08-30T06:33:36;11.85;;;7.03;;
81320;SDS011;70785;52.570;5.638;2023-08-30T06:36:04;11.15;;;6.75;;
81320;SDS011;70785;52.570;5.638;2023-08-30T06:38:30;13.48;;;7.35;;
81320;SDS011;70785;52.570;5.638;2023-08-30T06:41:00;12.85;;;6.75;;
81320;SDS011;70785;52.570;5.638;2023-08-30T06:43:26;10.20;;;6.35;;
81320;SDS011;70785;52.570;5.638;2023-08-30T06:45:52;11.57;;;6.43;;
81320;SDS011;70785;52.570;5.638;2023-08-30T06:48:18;10.43;;;6.82;;
81320;SDS011;70785;52.570;5.638;2023-08-30T06:50:44;9.65;;;5.95;;
81320;SDS011;70785;52.570;5.638;2023-08-30T06:53:11;12.10;;;6.22;;
81320;SDS011;70785;52.570;5.638;2023-08-30T06:55:37;10.57;;;5.78;;
81320;SDS011;70785;52.570;5.638;2023-08-30T06:58:03;10.65;;;5.82;;
81320;SDS011;70785;52.570;5.638;2023-08-30T07:00:30;11.23;;;6.93;;
81320;SDS011;70785;52.570;5.638;2023-08-30T07:02:56;12.48;;;6.13;;
81320;SDS011;70785;52.570;5.638;2023-08-30T07:05:22;9.68;;;5.88;;
81320;SDS011;70785;52.570;5.638;2023-08-30T07:07:48;10.32;;;5.82;;
81320;SDS011;70785;52.570;5.638;2023-08-30T07:10:14;10.82;;;6.25;;
81320;SDS011;70785;52.570;5.638;2023-08-30T07:12:41;13.95;;;6.47;;
81320;SDS011;70785;52.570;5.638;2023-08-30T07:15:07;12.98;;;6.78;;
81320;SDS011;70785;52.570;5.638;2023-08-30T07:17:33;11.93;;;6.03;;
81320;SDS011;70785;52.570;5.638;2023-08-30T07:19:59;10.98;;;5.55;;
81320;SDS011;70785;52.570;5.638;2023-08-30T07:22:26;12.00;;;6.10;;
81320;SDS011;70785;52.570;5.638;2023-08-30T07:24:52;12.82;;;6.97;;
81320;SDS011;70785;52.570;5.638;2023-08-30T07:27:18;10.82;;;5.90;;
81320;SDS011;70785;52.570;5.638;2023-08-30T07:29:45;11.38;;;5.75;;
81320;SDS011;70785;52.570;5.638;2023-08-30T07:32:11;11.15;;;6.00;;
81320;SDS011;70785;52.570;5.638;2023-08-30T07:34:39;10.25;;;6.45;;
81320;SDS011;70785;52.570;5.638;2023-08-30T07:37:15;12.02;;;6.45;;
81320;SDS011;70785;52.570;5.638;2023-08-30T07:39:45;9.48;;;6.22;;
81320;SDS011;70785;52.570;5.638;2023-08-30T07:42:12;12.32;;;5.93;;
81320;SDS011;70785;52.570;5.638;2023-08-30T07:44:39;11.07;;;6.78;;
81320;SDS011;70785;52.570;5.638;2023-08-30T07:47:05;10.27;;;6.18;;
81320;SDS011;70785;52.570;5.638;2023-08-30T07:49:31;11.43;;;7.75;;
81320;SDS011;70785;52.570;5.638;2023-08-30T07:51:57;12.73;;;6.78;;
81320;SDS011;70785;52.570;5.638;2023-08-30T07:54:23;12.68;;;6.22;;
81320;SDS011;70785;52.570;5.638;2023-08-30T07:56:49;13.48;;;6.63;;
81320;SDS011;70785;52.570;5.638;2023-08-30T07:59:15;15.52;;;7.05;;
81320;SDS011;70785;52.570;5.638;2023-08-30T08:01:41;11.32;;;7.03;;
81320;SDS011;70785;52.570;5.638;2023-08-30T08:04:08;11.60;;;5.90;;
81320;SDS011;70785;52.570;5.638;2023-08-30T08:06:34;13.80;;;6.32;;
81320;SDS011;70785;52.570;5.638;2023-08-30T08:09:00;13.25;;;7.53;;
81320;SDS011;70785;52.570;5.638;2023-08-30T08:11:26;13.88;;;7.20;;
81320;SDS011;70785;52.570;5.638;2023-08-30T08:13:53;14.30;;;6.78;;
81320;SDS011;70785;52.570;5.638;2023-08-30T08:16:19;12.38;;;6.50;;
81320;SDS011;70785;52.570;5.638;2023-08-30T08:18:45;12.90;;;6.90;;
81320;SDS011;70785;52.570;5.638;2023-08-30T08:21:12;14.13;;;7.13;;
81320;SDS011;70785;52.570;5.638;2023-08-30T08:23:38;11.73;;;6.80;;
81320;SDS011;70785;52.570;5.638;2023-08-30T08:26:04;14.13;;;7.03;;
81320;SDS011;70785;52.570;5.638;2023-08-30T08:28:30;13.43;;;6.47;;
81320;SDS011;70785;52.570;5.638;2023-08-30T08:30:56;12.35;;;7.00;;
81320;SDS011;70785;52.570;5.638;2023-08-30T08:33:22;15.75;;;7.57;;
81320;SDS011;70785;52.570;5.638;2023-08-30T08:35:49;12.80;;;7.57;;
81320;SDS011;70785;52.570;5.638;2023-08-30T08:38:16;10.75;;;6.57;;
81320;SDS011;70785;52.570;5.638;2023-08-30T08:40:42;9.48;;;5.32;;
81320;SDS011;70785;52.570;5.638;2023-08-30T08:43:11;12.00;;;5.80;;
81320;SDS011;70785;52.570;5.638;2023-08-30T08:45:41;10.18;;;6.13;;
81320;SDS011;70785;52.570;5.638;2023-08-30T08:48:08;11.55;;;6.28;;
81320;SDS011;70785;52.570;5.638;2023-08-30T08:50:35;9.80;;;5.35;;
81320;SDS011;70785;52.570;5.638;2023-08-30T08:53:02;10.93;;;6.35;;
81320;SDS011;70785;52.570;5.638;2023-08-30T08:55:29;7.95;;;5.20;;
81320;SDS011;70785;52.570;5.638;2023-08-30T08:57:57;10.65;;;5.72;;
81320;SDS011;70785;52.570;5.638;2023-08-30T09:00:24;8.52;;;5.00;;
81320;SDS011;70785;52.570;5.638;2023-08-30T09:02:51;8.10;;;4.72;;
81320;SDS011;70785;52.570;5.638;2023-08-30T09:05:19;8.30;;;4.63;;
81320;SDS011;70785;52.570;5.638;2023-08-30T09:07:45;6.72;;;4.78;;
81320;SDS011;70785;52.570;5.638;2023-08-30T09:10:12;8.32;;;4.32;;
81320;SDS011;70785;52.570;5.638;2023-08-30T09:12:39;6.25;;;4.40;;
81320;SDS011;70785;52.570;5.638;2023-08-30T09:15:05;6.10;;;3.90;;
81320;SDS011;70785;52.570;5.638;2023-08-30T09:17:35;6.88;;;3.92;;
81320;SDS011;70785;52.570;5.638;2023-08-30T09:20:08;7.43;;;4.05;;
81320;SDS011;70785;52.570;5.638;2023-08-30T09:22:42;8.45;;;4.45;;
81320;SDS011;70785;52.570;5.638;2023-08-30T09:25:09;5.75;;;3.83;;
81320;SDS011;70785;52.570;5.638;2023-08-30T09:27:36;7.22;;;3.45;;
81320;SDS011;70785;52.570;5.638;2023-08-30T09:30:05;6.80;;;4.18;;
81320;SDS011;70785;52.570;5.638;2023-08-30T09:32:38;6.60;;;3.90;;
81320;SDS011;70785;52.570;5.638;2023-08-30T09:35:08;7.43;;;3.85;;
81320;SDS011;70785;52.570;5.638;2023-08-30T09:37:34;7.10;;;4.03;;
81320;SDS011;70785;52.570;5.638;2023-08-30T09:40:00;6.10;;;4.35;;
81320;SDS011;70785;52.570;5.638;2023-08-30T09:42:27;6.22;;;3.97;;
81320;SDS011;70785;52.570;5.638;2023-08-30T09:44:53;7.32;;;4.32;;
81320;SDS011;70785;52.570;5.638;2023-08-30T09:47:19;19.63;;;4.50;;
81320;SDS011;70785;52.570;5.638;2023-08-30T09:49:45;6.93;;;3.78;;
81320;SDS011;70785;52.570;5.638;2023-08-30T09:52:12;51.53;;;11.85;;
81320;SDS011;70785;52.570;5.638;2023-08-30T09:54:40;5.82;;;3.83;;
81320;SDS011;70785;52.570;5.638;2023-08-30T09:57:09;8.73;;;4.10;;
81320;SDS011;70785;52.570;5.638;2023-08-30T09:59:36;9.60;;;4.22;;
81320;SDS011;70785;52.570;5.638;2023-08-30T10:02:03;6.45;;;3.90;;
81320;SDS011;70785;52.570;5.638;2023-08-30T10:04:31;5.97;;;3.70;;
81320;SDS011;70785;52.570;5.638;2023-08-30T10:06:59;5.22;;;3.67;;
81320;SDS011;70785;52.570;5.638;2023-08-30T10:09:30;6.70;;;4.78;;
81320;SDS011;70785;52.570;5.638;2023-08-30T10:11:57;7.72;;;3.88;;
81320;SDS011;70785;52.570;5.638;2023-08-30T10:14:24;7.47;;;4.28;;
81320;SDS011;70785;52.570;5.638;2023-08-30T10:16:50;7.28;;;3.70;;
81320;SDS011;70785;52.570;5.638;2023-08-30T10:19:25;5.38;;;3.33;;
81320;SDS011;70785;52.570;5.638;2023-08-30T10:22:13;6.40;;;4.30;;
81320;SDS011;70785;52.570;5.638;2023-08-30T10:24:44;5.50;;;3.42;;
81320;SDS011;70785;52.570;5.638;2023-08-30T10:27:15;6.65;;;3.90;;
81320;SDS011;70785;52.570;5.638;2023-08-30T10:29:43;5.35;;;4.13;;
81320;SDS011;70785;52.570;5.638;2023-08-30T10:32:11;6.53;;;3.60;;
81320;SDS011;70785;52.570;5.638;2023-08-30T10:34:37;5.68;;;3.58;;
81320;SDS011;70785;52.570;5.638;2023-08-30T10:37:06;6.28;;;3.40;;
81320;SDS011;70785;52.570;5.638;2023-08-30T10:39:37;4.28;;;3.33;;
81320;SDS011;70785;52.570;5.638;2023-08-30T10:42:09;4.63;;;3.33;;
81320;SDS011;70785;52.570;5.638;2023-08-30T10:44:49;7.40;;;4.05;;
81320;SDS011;70785;52.570;5.638;2023-08-30T10:47:20;5.28;;;3.40;;
81320;SDS011;70785;52.570;5.638;2023-08-30T10:49:48;6.32;;;3.90;;
81320;SDS011;70785;52.570;5.638;2023-08-30T10:52:15;5.65;;;3.47;;
81320;SDS011;70785;52.570;5.638;2023-08-30T10:54:41;5.60;;;3.75;;
81320;SDS011;70785;52.570;5.638;2023-08-30T10:57:15;7.55;;;4.07;;
81320;SDS011;70785;52.570;5.638;2023-08-30T11:00:03;4.55;;;3.90;;
81320;SDS011;70785;52.570;5.638;2023-08-30T11:02:30;5.25;;;4.05;;
81320;SDS011;70785;52.570;5.638;2023-08-30T11:04:57;5.32;;;3.72;;
81320;SDS011;70785;52.570;5.638;2023-08-30T11:07:25;5.93;;;3.53;;
81320;SDS011;70785;52.570;5.638;2023-08-30T11:09:54;7.18;;;3.25;;
81320;SDS011;70785;52.570;5.638;2023-08-30T11:12:21;4.88;;;3.42;;
81320;SDS011;70785;52.570;5.638;2023-08-30T11:14:55;5.93;;;3.55;;
81320;SDS011;70785;52.570;5.638;2023-08-30T11:17:22;6.18;;;4.13;;
81320;SDS011;70785;52.570;5.638;2023-08-30T11:19:56;5.20;;;3.85;;
81320;SDS011;70785;52.570;5.638;2023-08-30T11:22:24;4.80;;;4.32;;
81320;SDS011;70785;52.570;5.638;2023-08-30T11:24:50;6.50;;;3.35;;
81320;SDS011;70785;52.570;5.638;2023-08-30T11:27:17;6.20;;;3.63;;
81320;SDS011;70785;52.570;5.638;2023-08-30T11:29:44;5.68;;;4.10;;
81320;SDS011;70785;52.570;5.638;2023-08-30T11:32:10;5.25;;;4.32;;
81320;SDS011;70785;52.570;5.638;2023-08-30T11:34:36;5.95;;;4.40;;
81320;SDS011;70785;52.570;5.638;2023-08-30T11:37:02;5.63;;;3.97;;
81320;SDS011;70785;52.570;5.638;2023-08-30T11:39:29;4.05;;;3.17;;
81320;SDS011;70785;52.570;5.638;2023-08-30T11:41:56;5.60;;;3.55;;
81320;SDS011;70785;52.570;5.638;2023-08-30T11:44:28;6.00;;;3.60;;
81320;SDS011;70785;52.570;5.638;2023-08-30T11:46:58;4.45;;;4.05;;
81320;SDS011;70785;52.570;5.638;2023-08-30T11:49:26;3.22;;;2.28;;
81320;SDS011;70785;52.570;5.638;2023-08-30T11:51:53;2.10;;;1.20;;
81320;SDS011;70785;52.570;5.638;2023-08-30T11:54:22;1.77;;;1.30;;
81320;SDS011;70785;52.570;5.638;2023-08-30T11:56:50;1.40;;;1.30;;
81320;SDS011;70785;52.570;5.638;2023-08-30T11:59:19;1.65;;;1.55;;
81320;SDS011;70785;52.570;5.638;2023-08-30T12:01:48;1.60;;;1.30;;
81320;SDS011;70785;52.570;5.638;2023-08-30T12:04:15;2.00;;;1.55;;
81320;SDS011;70785;52.570;5.638;2023-08-30T12:06:41;1.95;;;1.65;;
81320;SDS011;70785;52.570;5.638;2023-08-30T12:09:11;2.80;;;2.17;;
81320;SDS011;70785;52.570;5.638;2023-08-30T12:11:38;2.95;;;1.95;;
81320;SDS011;70785;52.570;5.638;2023-08-30T12:14:04;2.53;;;2.10;;
81320;SDS011;70785;52.570;5.638;2023-08-30T12:16:30;2.67;;;1.50;;
81320;SDS011;70785;52.570;5.638;2023-08-30T12:19:06;2.22;;;1.80;;
81320;SDS011;70785;52.570;5.638;2023-08-30T12:21:38;3.03;;;1.38;;
81320;SDS011;70785;52.570;5.638;2023-08-30T12:24:08;5.03;;;1.98;;
81320;SDS011;70785;52.570;5.638;2023-08-30T12:26:35;3.25;;;2.35;;
81320;SDS011;70785;52.570;5.638;2023-08-30T12:29:04;4.05;;;2.30;;
81320;SDS011;70785;52.570;5.638;2023-08-30T12:31:32;3.70;;;1.70;;
81320;SDS011;70785;52.570;5.638;2023-08-30T12:33:58;3.08;;;2.50;;
81320;SDS011;70785;52.570;5.638;2023-08-30T12:36:25;3.70;;;2.08;;
81320;SDS011;70785;52.570;5.638;2023-08-30T12:38:51;5.90;;;1.80;;
81320;SDS011;70785;52.570;5.638;2023-08-30T12:41:17;6.53;;;1.60;;
81320;SDS011;70785;52.570;5.638;2023-08-30T12:43:43;4.47;;;1.23;;
81320;SDS011;70785;52.570;5.638;2023-08-30T12:46:09;3.40;;;1.10;;
81320;SDS011;70785;52.570;5.638;2023-08-30T12:48:35;3.00;;;1.25;;
81320;SDS011;70785;52.570;5.638;2023-08-30T12:51:01;4.68;;;1.70;;
81320;SDS011;70785;52.570;5.638;2023-08-30T12:53:29;4.18;;;1.77;;
81320;SDS011;70785;52.570;5.638;2023-08-30T12:55:55;4.15;;;1.67;;
81320;SDS011;70785;52.570;5.638;2023-08-30T12:58:21;5.20;;;1.60;;
81320;SDS011;70785;52.570;5.638;2023-08-30T13:00:47;4.53;;;1.83;;
81320;SDS011;70785;52.570;5.638;2023-08-30T13:03:13;4.22;;;1.92;;
81320;SDS011;70785;52.570;5.638;2023-08-30T13:05:39;6.63;;;1.75;;
81320;SDS011;70785;52.570;5.638;2023-08-30T13:08:05;4.10;;;2.33;;
81320;SDS011;70785;52.570;5.638;2023-08-30T13:10:31;6.22;;;1.52;;
81320;SDS011;70785;52.570;5.638;2023-08-30T13:12:57;4.60;;;1.40;;
81320;SDS011;70785;52.570;5.638;2023-08-30T13:15:23;4.75;;;1.20;;
81320;SDS011;70785;52.570;5.638;2023-08-30T13:17:50;3.85;;;1.33;;
81320;SDS011;70785;52.570;5.638;2023-08-30T13:20:16;3.90;;;1.08;;
81320;SDS011;70785;52.570;5.638;2023-08-30T13:22:42;6.40;;;1.27;;
81320;SDS011;70785;52.570;5.638;2023-08-30T13:25:08;4.78;;;0.82;;
81320;SDS011;70785;52.570;5.638;2023-08-30T13:27:35;4.68;;;1.38;;
81320;SDS011;70785;52.570;5.638;2023-08-30T13:30:01;4.43;;;1.17;;
81320;SDS011;70785;52.570;5.638;2023-08-30T13:32:28;7.50;;;1.85;;
81320;SDS011;70785;52.570;5.638;2023-08-30T13:34:54;6.53;;;1.40;;
81320;SDS011;70785;52.570;5.638;2023-08-30T13:37:20;6.60;;;1.08;;
81320;SDS011;70785;52.570;5.638;2023-08-30T13:39:49;5.60;;;2.05;;
81320;SDS011;70785;52.570;5.638;2023-08-30T13:42:15;4.47;;;1.00;;
81320;SDS011;70785;52.570;5.638;2023-08-30T13:44:41;4.53;;;1.17;;
81320;SDS011;70785;52.570;5.638;2023-08-30T13:47:09;3.53;;;0.70;;
81320;SDS011;70785;52.570;5.638;2023-08-30T13:49:35;4.80;;;1.42;;
81320;SDS011;70785;52.570;5.638;2023-08-30T13:52:01;3.58;;;0.65;;
81320;SDS011;70785;52.570;5.638;2023-08-30T13:54:28;5.30;;;0.93;;
81320;SDS011;70785;52.570;5.638;2023-08-30T13:56:57;4.28;;;0.85;;
81320;SDS011;70785;52.570;5.638;2023-08-30T13:59:24;2.60;;;1.10;;
81320;SDS011;70785;52.570;5.638;2023-08-30T14:01:50;4.45;;;0.73;;
81320;SDS011;70785;52.570;5.638;2023-08-30T14:04:16;3.30;;;0.63;;
81320;SDS011;70785;52.570;5.638;2023-08-30T14:06:43;3.33;;;0.80;;
81320;SDS011;70785;52.570;5.638;2023-08-30T14:09:09;3.65;;;0.98;;
81320;SDS011;70785;52.570;5.638;2023-08-30T14:11:35;3.50;;;0.77;;
81320;SDS011;70785;52.570;5.638;2023-08-30T14:14:03;2.42;;;0.50;;
81320;SDS011;70785;52.570;5.638;2023-08-30T14:16:29;4.13;;;0.82;;
81320;SDS011;70785;52.570;5.638;2023-08-30T14:18:55;3.03;;;0.82;;
81320;SDS011;70785;52.570;5.638;2023-08-30T14:21:25;4.13;;;0.93;;
81320;SDS011;70785;52.570;5.638;2023-08-30T14:23:52;5.93;;;1.17;;
81320;SDS011;70785;52.570;5.638;2023-08-30T14:26:19;3.95;;;1.00;;
81320;SDS011;70785;52.570;5.638;2023-08-30T14:28:45;3.60;;;0.93;;
81320;SDS011;70785;52.570;5.638;2023-08-30T14:31:11;3.45;;;0.80;;
81320;SDS011;70785;52.570;5.638;2023-08-30T14:33:37;4.72;;;0.88;;
81320;SDS011;70785;52.570;5.638;2023-08-30T14:36:10;3.55;;;0.88;;
81320;SDS011;70785;52.570;5.638;2023-08-30T14:38:37;3.17;;;0.65;;
81320;SDS011;70785;52.570;5.638;2023-08-30T14:41:03;3.55;;;0.70;;
81320;SDS011;70785;52.570;5.638;2023-08-30T14:43:29;7.35;;;0.98;;
81320;SDS011;70785;52.570;5.638;2023-08-30T14:45:59;3.75;;;0.77;;
81320;SDS011;70785;52.570;5.638;2023-08-30T14:48:29;2.03;;;0.60;;